sensor_id;sensor_type;location;lat;lon;timestamp;pressure;altitude;pressure_sealevel;temperature;humidity
58471;BME280;44258;51.288;12.068;2023-03-13T00:02:13;99692.78;;;8.16;64.52
58471;BME280;44258;51.288;12.068;2023-03-13T00:04:41;99694.75;;;8.12;64.54
58471;BME280;44258;51.288;12.068;2023-03-13T00:07:09;99683.81;;;8.01;65.02
58471;BME280;44258;51.288;12.068;2023-03-13T00:09:36;99694.31;;;8.04;64.77
58471;BME280;44258;51.288;12.068;2023-03-13T00:12:03;99694.50;;;8.01;64.78
58471;BME280;44258;51.288;12.068;2023-03-13T00:14:30;99697.19;;;8.01;64.80
58471;BME280;44258;51.288;12.068;2023-03-13T00:16:57;99693.03;;;7.95;65.04
58471;BME280;44258;51.288;12.068;2023-03-13T00:19:25;99697.19;;;8.01;64.89
58471;BME280;44258;51.288;12.068;2023-03-13T00:21:51;99686.06;;;8.08;64.62
58471;BME280;44258;51.288;12.068;2023-03-13T00:24:19;99677.84;;;8.11;64.30
58471;BME280;44258;51.288;12.068;2023-03-13T00:26:47;99681.56;;;8.09;64.35
58471;BME280;44258;51.288;12.068;2023-03-13T00:29:14;99682.34;;;8.11;64.33
58471;BME280;44258;51.288;12.068;2023-03-13T00:31:40;99674.31;;;8.11;64.32
58471;BME280;44258;51.288;12.068;2023-03-13T00:34:08;99677.69;;;8.14;64.26
58471;BME280;44258;51.288;12.068;2023-03-13T00:36:38;99680.00;;;8.21;63.97
58471;BME280;44258;51.288;12.068;2023-03-13T00:39:06;99681.72;;;8.22;63.69
58471;BME280;44258;51.288;12.068;2023-03-13T00:41:35;99670.31;;;8.18;63.77
58471;BME280;44258;51.288;12.068;2023-03-13T00:44:02;99672.13;;;8.18;63.83
58471;BME280;44258;51.288;12.068;2023-03-13T00:46:29;99672.81;;;8.21;63.64
58471;BME280;44258;51.288;12.068;2023-03-13T00:48:57;99669.03;;;8.25;63.30
58471;BME280;44258;51.288;12.068;2023-03-13T00:51:25;99665.22;;;8.29;63.36
58471;BME280;44258;51.288;12.068;2023-03-13T00:53:54;99662.63;;;8.28;63.23
58471;BME280;44258;51.288;12.068;2023-03-13T00:56:21;99657.09;;;8.31;62.97
58471;BME280;44258;51.288;12.068;2023-03-13T00:58:50;99659.59;;;8.34;62.85
58471;BME280;44258;51.288;12.068;2023-03-13T01:01:18;99646.44;;;8.45;62.62
58471;BME280;44258;51.288;12.068;2023-03-13T01:03:47;99652.47;;;8.49;62.28
58471;BME280;44258;51.288;12.068;2023-03-13T01:06:16;99646.53;;;8.44;62.15
58471;BME280;44258;51.288;12.068;2023-03-13T01:08:45;99642.72;;;8.48;62.11
58471;BME280;44258;51.288;12.068;2023-03-13T01:11:15;99641.16;;;8.44;62.07
58471;BME280;44258;51.288;12.068;2023-03-13T01:13:42;99638.13;;;8.50;61.97
58471;BME280;44258;51.288;12.068;2023-03-13T01:16:15;99640.19;;;8.45;61.98
58471;BME280;44258;51.288;12.068;2023-03-13T01:18:44;99632.28;;;8.43;61.91
58471;BME280;44258;51.288;12.068;2023-03-13T01:21:13;99620.09;;;8.38;61.89
58471;BME280;44258;51.288;12.068;2023-03-13T01:23:40;99620.69;;;8.43;61.72
58471;BME280;44258;51.288;12.068;2023-03-13T01:26:08;99613.53;;;8.43;61.58
58471;BME280;44258;51.288;12.068;2023-03-13T01:28:35;99612.03;;;8.53;61.26
58471;BME280;44258;51.288;12.068;2023-03-13T01:31:12;99612.09;;;8.52;61.37
58471;BME280;44258;51.288;12.068;2023-03-13T01:33:39;99621.28;;;8.48;61.35
58471;BME280;44258;51.288;12.068;2023-03-13T01:36:07;99610.84;;;8.43;61.16
58471;BME280;44258;51.288;12.068;2023-03-13T01:38:34;99616.09;;;8.45;61.29
58471;BME280;44258;51.288;12.068;2023-03-13T01:41:01;99616.00;;;8.46;61.39
58471;BME280;44258;51.288;12.068;2023-03-13T01:43:32;99611.50;;;8.47;61.05
58471;BME280;44258;51.288;12.068;2023-03-13T01:46:02;99612.28;;;8.49;61.02
58471;BME280;44258;51.288;12.068;2023-03-13T01:48:36;99612.47;;;8.46;60.82
58471;BME280;44258;51.288;12.068;2023-03-13T01:51:07;99605.97;;;8.50;60.79
58471;BME280;44258;51.288;12.068;2023-03-13T01:53:36;99605.00;;;8.51;60.94
58471;BME280;44258;51.288;12.068;2023-03-13T01:56:08;99599.41;;;8.56;60.68
58471;BME280;44258;51.288;12.068;2023-03-13T01:58:37;99590.63;;;8.68;60.35
58471;BME280;44258;51.288;12.068;2023-03-13T02:01:05;99593.56;;;8.63;60.86
58471;BME280;44258;51.288;12.068;2023-03-13T02:03:37;99593.38;;;8.66;60.66
58471;BME280;44258;51.288;12.068;2023-03-13T02:06:05;99589.16;;;8.62;60.95
58471;BME280;44258;51.288;12.068;2023-03-13T02:08:37;99602.94;;;8.56;61.04
58471;BME280;44258;51.288;12.068;2023-03-13T02:11:13;99597.63;;;8.40;61.61
58471;BME280;44258;51.288;12.068;2023-03-13T02:13:46;99594.28;;;8.51;61.33
58471;BME280;44258;51.288;12.068;2023-03-13T02:16:14;99583.69;;;8.49;61.54
58471;BME280;44258;51.288;12.068;2023-03-13T02:18:43;99579.47;;;8.45;61.52
58471;BME280;44258;51.288;12.068;2023-03-13T02:21:15;99574.34;;;8.41;61.96
58471;BME280;44258;51.288;12.068;2023-03-13T02:23:51;99570.75;;;8.42;61.88
58471;BME280;44258;51.288;12.068;2023-03-13T02:26:20;99559.94;;;8.43;61.97
58471;BME280;44258;51.288;12.068;2023-03-13T02:28:48;99557.50;;;8.39;62.17
58471;BME280;44258;51.288;12.068;2023-03-13T02:31:15;99556.66;;;8.38;62.27
58471;BME280;44258;51.288;12.068;2023-03-13T02:33:42;99552.63;;;8.31;62.70
58471;BME280;44258;51.288;12.068;2023-03-13T02:36:11;99543.34;;;8.37;62.62
58471;BME280;44258;51.288;12.068;2023-03-13T02:38:46;99532.63;;;8.37;62.61
58471;BME280;44258;51.288;12.068;2023-03-13T02:41:16;99533.16;;;8.43;62.46
58471;BME280;44258;51.288;12.068;2023-03-13T02:43:45;99532.25;;;8.43;62.48
58471;BME280;44258;51.288;12.068;2023-03-13T02:46:18;99529.41;;;8.46;62.26
58471;BME280;44258;51.288;12.068;2023-03-13T02:48:48;99525.63;;;8.20;63.38
58471;BME280;44258;51.288;12.068;2023-03-13T02:51:21;99530.03;;;8.21;63.49
58471;BME280;44258;51.288;12.068;2023-03-13T02:53:53;99526.50;;;8.34;63.06
58471;BME280;44258;51.288;12.068;2023-03-13T02:56:23;99527.63;;;8.30;63.20
58471;BME280;44258;51.288;12.068;2023-03-13T02:58:52;99524.44;;;8.40;62.88
58471;BME280;44258;51.288;12.068;2023-03-13T03:01:19;99516.47;;;8.38;62.86
58471;BME280;44258;51.288;12.068;2023-03-13T03:03:46;99523.66;;;8.38;62.84
58471;BME280;44258;51.288;12.068;2023-03-13T03:06:15;99515.16;;;8.45;62.73
58471;BME280;44258;51.288;12.068;2023-03-13T03:08:43;99500.22;;;8.41;62.68
58471;BME280;44258;51.288;12.068;2023-03-13T03:11:10;99488.91;;;8.36;62.72
58471;BME280;44258;51.288;12.068;2023-03-13T03:13:37;99489.78;;;8.37;62.90
58471;BME280;44258;51.288;12.068;2023-03-13T03:16:09;99486.16;;;8.38;62.86
58471;BME280;44258;51.288;12.068;2023-03-13T03:18:37;99491.13;;;8.44;62.44
58471;BME280;44258;51.288;12.068;2023-03-13T03:21:06;99477.34;;;8.36;62.74
58471;BME280;44258;51.288;12.068;2023-03-13T03:23:34;99470.44;;;8.31;62.84
58471;BME280;44258;51.288;12.068;2023-03-13T03:26:03;99474.28;;;8.27;63.08
58471;BME280;44258;51.288;12.068;2023-03-13T03:28:31;99457.59;;;8.22;63.00
58471;BME280;44258;51.288;12.068;2023-03-13T03:31:03;99465.06;;;8.17;63.27
58471;BME280;44258;51.288;12.068;2023-03-13T03:33:32;99459.81;;;8.16;63.54
58471;BME280;44258;51.288;12.068;2023-03-13T03:35:59;99455.78;;;8.08;63.79
58471;BME280;44258;51.288;12.068;2023-03-13T03:38:26;99445.69;;;7.98;64.19
58471;BME280;44258;51.288;12.068;2023-03-13T03:40:53;99438.72;;;7.95;64.46
58471;BME280;44258;51.288;12.068;2023-03-13T03:43:20;99435.28;;;7.93;64.74
58471;BME280;44258;51.288;12.068;2023-03-13T03:45:47;99430.31;;;8.01;64.49
58471;BME280;44258;51.288;12.068;2023-03-13T03:48:13;99417.25;;;8.11;64.14
58471;BME280;44258;51.288;12.068;2023-03-13T03:50:42;99404.41;;;8.02;64.44
58471;BME280;44258;51.288;12.068;2023-03-13T03:53:09;99400.19;;;7.98;64.67
58471;BME280;44258;51.288;12.068;2023-03-13T03:55:35;99387.78;;;7.97;65.04
58471;BME280;44258;51.288;12.068;2023-03-13T03:58:05;99394.44;;;7.89;65.16
58471;BME280;44258;51.288;12.068;2023-03-13T04:00:32;99383.34;;;7.96;64.94
58471;BME280;44258;51.288;12.068;2023-03-13T04:02:59;99370.25;;;7.91;65.15
58471;BME280;44258;51.288;12.068;2023-03-13T04:05:27;99374.25;;;7.84;65.78
58471;BME280;44258;51.288;12.068;2023-03-13T04:07:55;99364.22;;;7.87;65.60
58471;BME280;44258;51.288;12.068;2023-03-13T04:10:22;99364.69;;;7.94;65.58
58471;BME280;44258;51.288;12.068;2023-03-13T04:12:49;99368.72;;;7.87;65.83
58471;BME280;44258;51.288;12.068;2023-03-13T04:15:16;99367.28;;;7.96;65.53
58471;BME280;44258;51.288;12.068;2023-03-13T04:17:45;99357.75;;;8.06;65.14
58471;BME280;44258;51.288;12.068;2023-03-13T04:20:12;99347.91;;;8.06;65.05
58471;BME280;44258;51.288;12.068;2023-03-13T04:22:39;99346.19;;;8.05;65.01
58471;BME280;44258;51.288;12.068;2023-03-13T04:25:09;99333.63;;;7.91;65.37
58471;BME280;44258;51.288;12.068;2023-03-13T04:27:36;99324.66;;;7.92;65.60
58471;BME280;44258;51.288;12.068;2023-03-13T04:30:03;99336.41;;;7.90;65.57
58471;BME280;44258;51.288;12.068;2023-03-13T04:32:30;99327.47;;;7.75;66.15
58471;BME280;44258;51.288;12.068;2023-03-13T04:34:56;99319.34;;;7.77;66.05
58471;BME280;44258;51.288;12.068;2023-03-13T04:37:23;99316.75;;;7.61;66.92
58471;BME280;44258;51.288;12.068;2023-03-13T04:39:50;99310.06;;;7.68;66.52
58471;BME280;44258;51.288;12.068;2023-03-13T04:42:20;99299.66;;;7.78;66.22
58471;BME280;44258;51.288;12.068;2023-03-13T04:44:47;99307.34;;;7.84;66.29
58471;BME280;44258;51.288;12.068;2023-03-13T04:47:14;99302.75;;;7.86;66.14
58471;BME280;44258;51.288;12.068;2023-03-13T04:49:41;99290.63;;;7.94;65.90
58471;BME280;44258;51.288;12.068;2023-03-13T04:52:10;99284.31;;;7.96;66.04
58471;BME280;44258;51.288;12.068;2023-03-13T04:54:40;99272.97;;;8.06;65.77
58471;BME280;44258;51.288;12.068;2023-03-13T04:57:07;99267.78;;;8.03;65.85
58471;BME280;44258;51.288;12.068;2023-03-13T04:59:35;99267.00;;;8.01;66.38
58471;BME280;44258;51.288;12.068;2023-03-13T05:02:02;99263.78;;;8.10;66.18
58471;BME280;44258;51.288;12.068;2023-03-13T05:04:31;99255.16;;;8.05;66.94
58471;BME280;44258;51.288;12.068;2023-03-13T05:06:58;99256.28;;;8.16;67.14
58471;BME280;44258;51.288;12.068;2023-03-13T05:09:25;99262.63;;;8.14;67.73
58471;BME280;44258;51.288;12.068;2023-03-13T05:11:52;99251.00;;;8.28;67.13
58471;BME280;44258;51.288;12.068;2023-03-13T05:14:20;99245.06;;;8.38;67.08
58471;BME280;44258;51.288;12.068;2023-03-13T05:16:49;99240.84;;;8.48;66.61
58471;BME280;44258;51.288;12.068;2023-03-13T05:19:16;99231.28;;;8.44;67.04
58471;BME280;44258;51.288;12.068;2023-03-13T05:21:45;99221.59;;;8.56;66.45
58471;BME280;44258;51.288;12.068;2023-03-13T05:24:12;99213.41;;;8.57;66.13
58471;BME280;44258;51.288;12.068;2023-03-13T05:26:43;99213.41;;;8.57;66.17
58471;BME280;44258;51.288;12.068;2023-03-13T05:29:10;99201.75;;;8.58;65.98
58471;BME280;44258;51.288;12.068;2023-03-13T05:31:37;99197.25;;;8.59;66.05
58471;BME280;44258;51.288;12.068;2023-03-13T05:34:05;99189.66;;;8.65;66.15
58471;BME280;44258;51.288;12.068;2023-03-13T05:36:32;99185.88;;;8.55;66.10
58471;BME280;44258;51.288;12.068;2023-03-13T05:38:59;99174.25;;;8.42;67.00
58471;BME280;44258;51.288;12.068;2023-03-13T05:41:26;99171.00;;;8.37;67.35
58471;BME280;44258;51.288;12.068;2023-03-13T05:43:54;99167.75;;;8.46;67.14
58471;BME280;44258;51.288;12.068;2023-03-13T05:46:20;99160.47;;;8.48;67.25
58471;BME280;44258;51.288;12.068;2023-03-13T05:48:47;99146.00;;;8.50;67.59
58471;BME280;44258;51.288;12.068;2023-03-13T05:51:16;99144.31;;;8.62;67.35
58471;BME280;44258;51.288;12.068;2023-03-13T05:53:44;99143.34;;;8.63;67.55
58471;BME280;44258;51.288;12.068;2023-03-13T05:56:13;99137.28;;;8.74;67.21
58471;BME280;44258;51.288;12.068;2023-03-13T05:58:40;99137.28;;;8.74;67.54
58471;BME280;44258;51.288;12.068;2023-03-13T06:01:11;99128.34;;;8.61;68.16
58471;BME280;44258;51.288;12.068;2023-03-13T06:03:41;99134.59;;;8.74;68.05
58471;BME280;44258;51.288;12.068;2023-03-13T06:06:07;99117.66;;;8.73;68.76
58471;BME280;44258;51.288;12.068;2023-03-13T06:08:36;99115.19;;;8.83;68.37
58471;BME280;44258;51.288;12.068;2023-03-13T06:11:07;99111.56;;;8.84;68.34
58471;BME280;44258;51.288;12.068;2023-03-13T06:13:34;99110.38;;;8.76;69.03
58471;BME280;44258;51.288;12.068;2023-03-13T06:16:01;99098.97;;;8.59;69.98
58471;BME280;44258;51.288;12.068;2023-03-13T06:18:27;99094.25;;;8.63;69.79
58471;BME280;44258;51.288;12.068;2023-03-13T06:20:56;99091.16;;;8.69;69.98
58471;BME280;44258;51.288;12.068;2023-03-13T06:23:26;99092.13;;;8.68;70.27
58471;BME280;44258;51.288;12.068;2023-03-13T06:25:55;99079.59;;;8.68;70.13
58471;BME280;44258;51.288;12.068;2023-03-13T06:28:21;99074.75;;;8.61;70.68
58471;BME280;44258;51.288;12.068;2023-03-13T06:30:49;99059.13;;;8.67;70.38
58471;BME280;44258;51.288;12.068;2023-03-13T06:33:17;99068.78;;;8.70;70.36
58471;BME280;44258;51.288;12.068;2023-03-13T06:35:44;99065.13;;;8.71;70.28
58471;BME280;44258;51.288;12.068;2023-03-13T06:38:11;99051.41;;;8.76;69.79
58471;BME280;44258;51.288;12.068;2023-03-13T06:40:37;99055.69;;;8.78;69.50
58471;BME280;44258;51.288;12.068;2023-03-13T06:43:05;99045.72;;;8.93;68.84
58471;BME280;44258;51.288;12.068;2023-03-13T06:45:34;99038.97;;;8.87;69.10
58471;BME280;44258;51.288;12.068;2023-03-13T06:48:01;99048.81;;;9.00;68.49
58471;BME280;44258;51.288;12.068;2023-03-13T06:50:30;99045.06;;;8.89;68.58
58471;BME280;44258;51.288;12.068;2023-03-13T06:52:56;99062.78;;;8.92;68.48
58471;BME280;44258;51.288;12.068;2023-03-13T06:55:25;99065.25;;;8.95;68.17
58471;BME280;44258;51.288;12.068;2023-03-13T06:57:52;99066.84;;;8.98;67.53
58471;BME280;44258;51.288;12.068;2023-03-13T07:00:21;99077.16;;;9.17;67.09
58471;BME280;44258;51.288;12.068;2023-03-13T07:02:49;99088.50;;;9.20;66.97
58471;BME280;44258;51.288;12.068;2023-03-13T07:05:19;99077.34;;;9.13;67.21
58471;BME280;44258;51.288;12.068;2023-03-13T07:07:46;99086.91;;;9.05;67.61
58471;BME280;44258;51.288;12.068;2023-03-13T07:10:13;99085.81;;;9.20;67.09
58471;BME280;44258;51.288;12.068;2023-03-13T07:12:40;99088.75;;;9.04;67.73
58471;BME280;44258;51.288;12.068;2023-03-13T07:15:10;99102.34;;;9.14;67.49
58471;BME280;44258;51.288;12.068;2023-03-13T07:17:38;99087.44;;;9.10;67.49
58471;BME280;44258;51.288;12.068;2023-03-13T07:20:06;99067.94;;;9.21;67.12
58471;BME280;44258;51.288;12.068;2023-03-13T07:22:35;99055.88;;;9.26;67.36
58471;BME280;44258;51.288;12.068;2023-03-13T07:25:02;99048.63;;;9.41;67.08
58471;BME280;44258;51.288;12.068;2023-03-13T07:27:29;99022.63;;;9.42;67.10
58471;BME280;44258;51.288;12.068;2023-03-13T07:29:56;99022.44;;;9.45;67.23
58471;BME280;44258;51.288;12.068;2023-03-13T07:32:23;99023.16;;;9.47;67.40
58471;BME280;44258;51.288;12.068;2023-03-13T07:34:51;99037.09;;;9.52;67.34
58471;BME280;44258;51.288;12.068;2023-03-13T07:37:18;99027.94;;;9.67;66.95
58471;BME280;44258;51.288;12.068;2023-03-13T07:39:45;99020.94;;;9.65;66.97
58471;BME280;44258;51.288;12.068;2023-03-13T07:42:12;99014.16;;;9.72;66.52
58471;BME280;44258;51.288;12.068;2023-03-13T07:44:39;99007.22;;;9.69;66.90
58471;BME280;44258;51.288;12.068;2023-03-13T07:47:06;99011.75;;;9.56;67.56
58471;BME280;44258;51.288;12.068;2023-03-13T07:49:33;99023.59;;;9.78;66.89
58471;BME280;44258;51.288;12.068;2023-03-13T07:52:08;99034.19;;;9.79;67.05
58471;BME280;44258;51.288;12.068;2023-03-13T07:54:35;99040.50;;;9.91;66.85
58471;BME280;44258;51.288;12.068;2023-03-13T07:57:03;99034.69;;;9.97;66.44
58471;BME280;44258;51.288;12.068;2023-03-13T07:59:30;99037.19;;;10.11;66.20
58471;BME280;44258;51.288;12.068;2023-03-13T08:01:57;99046.88;;;10.14;66.57
58471;BME280;44258;51.288;12.068;2023-03-13T08:04:24;99047.69;;;10.39;66.01
58471;BME280;44258;51.288;12.068;2023-03-13T08:06:51;99042.06;;;10.42;65.71
58471;BME280;44258;51.288;12.068;2023-03-13T08:09:20;99040.47;;;10.39;65.82
58471;BME280;44258;51.288;12.068;2023-03-13T08:11:47;99035.66;;;10.55;65.65
58471;BME280;44258;51.288;12.068;2023-03-13T08:14:13;99043.72;;;10.55;65.59
58471;BME280;44258;51.288;12.068;2023-03-13T08:16:41;99042.78;;;10.32;66.29
58471;BME280;44258;51.288;12.068;2023-03-13T08:19:09;99049.69;;;10.24;67.36
58471;BME280;44258;51.288;12.068;2023-03-13T08:21:36;99046.34;;;10.44;66.48
58471;BME280;44258;51.288;12.068;2023-03-13T08:24:07;99030.38;;;10.54;66.02
58471;BME280;44258;51.288;12.068;2023-03-13T08:26:38;99016.94;;;10.54;65.90
58471;BME280;44258;51.288;12.068;2023-03-13T08:29:08;99017.47;;;10.70;65.73
58471;BME280;44258;51.288;12.068;2023-03-13T08:31:37;99021.28;;;10.32;66.92
58471;BME280;44258;51.288;12.068;2023-03-13T08:34:04;99010.81;;;10.41;66.51
58471;BME280;44258;51.288;12.068;2023-03-13T08:36:32;99004.16;;;10.69;66.13
58471;BME280;44258;51.288;12.068;2023-03-13T08:39:00;99011.75;;;10.75;66.01
58471;BME280;44258;51.288;12.068;2023-03-13T08:41:31;99015.47;;;10.85;65.67
58471;BME280;44258;51.288;12.068;2023-03-13T08:44:01;99031.63;;;10.72;65.78
58471;BME280;44258;51.288;12.068;2023-03-13T08:46:33;99040.34;;;10.76;65.92
58471;BME280;44258;51.288;12.068;2023-03-13T08:49:02;99025.47;;;10.94;65.31
58471;BME280;44258;51.288;12.068;2023-03-13T08:51:30;99029.03;;;11.06;65.22
58471;BME280;44258;51.288;12.068;2023-03-13T08:53:56;99017.66;;;10.91;65.41
58471;BME280;44258;51.288;12.068;2023-03-13T08:56:27;99015.97;;;11.02;65.38
58471;BME280;44258;51.288;12.068;2023-03-13T08:58:56;99012.41;;;11.12;65.14
58471;BME280;44258;51.288;12.068;2023-03-13T09:01:27;99019.50;;;11.02;65.70
58471;BME280;44258;51.288;12.068;2023-03-13T09:03:54;99013.50;;;10.99;66.17
58471;BME280;44258;51.288;12.068;2023-03-13T09:06:21;99007.00;;;11.01;65.66
58471;BME280;44258;51.288;12.068;2023-03-13T09:08:49;99002.13;;;10.95;65.37
58471;BME280;44258;51.288;12.068;2023-03-13T09:11:18;99009.34;;;10.94;66.07
58471;BME280;44258;51.288;12.068;2023-03-13T09:13:47;99016.56;;;10.94;65.89
58471;BME280;44258;51.288;12.068;2023-03-13T09:16:15;99005.44;;;11.10;65.63
58471;BME280;44258;51.288;12.068;2023-03-13T09:18:46;99000.06;;;10.99;65.63
58471;BME280;44258;51.288;12.068;2023-03-13T09:21:15;99000.31;;;10.96;66.05
58471;BME280;44258;51.288;12.068;2023-03-13T09:23:42;99007.25;;;11.09;65.94
58471;BME280;44258;51.288;12.068;2023-03-13T09:26:10;99011.66;;;11.33;64.93
58471;BME280;44258;51.288;12.068;2023-03-13T09:28:38;98996.13;;;11.37;64.94
58471;BME280;44258;51.288;12.068;2023-03-13T09:31:07;98995.75;;;11.41;65.06
58471;BME280;44258;51.288;12.068;2023-03-13T09:33:35;98995.75;;;11.52;64.71
58471;BME280;44258;51.288;12.068;2023-03-13T09:36:03;98993.69;;;11.45;65.16
58471;BME280;44258;51.288;12.068;2023-03-13T09:38:31;98984.03;;;11.42;65.21
58471;BME280;44258;51.288;12.068;2023-03-13T09:41:03;98989.13;;;11.45;65.42
58471;BME280;44258;51.288;12.068;2023-03-13T09:43:41;99007.75;;;11.37;65.69
58471;BME280;44258;51.288;12.068;2023-03-13T09:46:15;99017.53;;;11.27;66.10
58471;BME280;44258;51.288;12.068;2023-03-13T09:48:48;99016.19;;;11.44;66.00
58471;BME280;44258;51.288;12.068;2023-03-13T09:51:20;99010.69;;;11.45;66.01
58471;BME280;44258;51.288;12.068;2023-03-13T09:53:53;99018.38;;;11.61;65.83
58471;BME280;44258;51.288;12.068;2023-03-13T09:56:24;99018.72;;;11.68;65.58
58471;BME280;44258;51.288;12.068;2023-03-13T09:58:54;99016.78;;;11.47;66.28
58471;BME280;44258;51.288;12.068;2023-03-13T10:01:27;99018.03;;;11.43;66.58
58471;BME280;44258;51.288;12.068;2023-03-13T10:04:05;99018.97;;;11.65;66.08
58471;BME280;44258;51.288;12.068;2023-03-13T10:06:39;99025.72;;;11.59;66.25
58471;BME280;44258;51.288;12.068;2023-03-13T10:09:16;99025.16;;;11.77;65.61
58471;BME280;44258;51.288;12.068;2023-03-13T10:12:03;99013.66;;;11.74;65.59
58471;BME280;44258;51.288;12.068;2023-03-13T10:14:41;99007.72;;;11.71;66.02
58471;BME280;44258;51.288;12.068;2023-03-13T10:17:14;99015.41;;;11.75;66.01
58471;BME280;44258;51.288;12.068;2023-03-13T10:19:51;99005.38;;;11.66;66.41
58471;BME280;44258;51.288;12.068;2023-03-13T10:22:24;99002.91;;;11.74;66.08
58471;BME280;44258;51.288;12.068;2023-03-13T10:24:55;99012.38;;;11.69;66.24
58471;BME280;44258;51.288;12.068;2023-03-13T10:27:24;99022.34;;;11.89;65.90
58471;BME280;44258;51.288;12.068;2023-03-13T10:29:51;99027.09;;;11.97;65.88
58471;BME280;44258;51.288;12.068;2023-03-13T10:32:21;99024.88;;;12.02;66.00
58471;BME280;44258;51.288;12.068;2023-03-13T10:34:51;99031.13;;;12.14;65.53
58471;BME280;44258;51.288;12.068;2023-03-13T10:37:22;99031.34;;;12.11;65.44
58471;BME280;44258;51.288;12.068;2023-03-13T10:39:49;99030.09;;;12.15;65.76
58471;BME280;44258;51.288;12.068;2023-03-13T10:42:21;99028.88;;;12.19;65.87
58471;BME280;44258;51.288;12.068;2023-03-13T10:44:55;99029.66;;;12.42;65.30
58471;BME280;44258;51.288;12.068;2023-03-13T10:47:21;99023.56;;;12.50;64.94
58471;BME280;44258;51.288;12.068;2023-03-13T10:49:55;99022.41;;;12.64;64.72
58471;BME280;44258;51.288;12.068;2023-03-13T10:52:35;99019.00;;;12.83;64.30
58471;BME280;44258;51.288;12.068;2023-03-13T10:55:10;99008.41;;;12.91;64.04
58471;BME280;44258;51.288;12.068;2023-03-13T10:57:42;99005.53;;;13.13;63.64
58471;BME280;44258;51.288;12.068;2023-03-13T11:00:27;98971.88;;;13.18;63.80
58471;BME280;44258;51.288;12.068;2023-03-13T11:02:55;98981.81;;;13.58;62.85
58471;BME280;44258;51.288;12.068;2023-03-13T11:05:32;98961.22;;;13.76;62.42
58471;BME280;44258;51.288;12.068;2023-03-13T11:08:22;98969.06;;;14.08;62.06
58471;BME280;44258;51.288;12.068;2023-03-13T11:10:57;98971.78;;;14.18;60.95
58471;BME280;44258;51.288;12.068;2023-03-13T11:13:39;98967.25;;;14.38;60.99
58471;BME280;44258;51.288;12.068;2023-03-13T11:16:20;98961.97;;;14.37;60.38
58471;BME280;44258;51.288;12.068;2023-03-13T11:19:00;98964.50;;;14.19;60.00
58471;BME280;44258;51.288;12.068;2023-03-13T11:21:37;98961.09;;;14.17;60.74
58471;BME280;44258;51.288;12.068;2023-03-13T11:24:12;98956.41;;;14.48;59.63
58471;BME280;44258;51.288;12.068;2023-03-13T11:26:44;98942.84;;;14.67;59.62
58471;BME280;44258;51.288;12.068;2023-03-13T11:29:17;98940.72;;;14.51;59.59
58471;BME280;44258;51.288;12.068;2023-03-13T11:31:50;98940.19;;;14.38;59.65
58471;BME280;44258;51.288;12.068;2023-03-13T11:34:21;98912.31;;;14.38;59.92
58471;BME280;44258;51.288;12.068;2023-03-13T11:36:57;98914.13;;;14.57;58.85
58471;BME280;44258;51.288;12.068;2023-03-13T11:39:39;98906.59;;;14.50;58.83
58471;BME280;44258;51.288;12.068;2023-03-13T11:42:26;98886.13;;;14.38;59.51
58471;BME280;44258;51.288;12.068;2023-03-13T11:45:05;98905.41;;;14.63;59.47
58471;BME280;44258;51.288;12.068;2023-03-13T11:47:44;98897.13;;;14.74;58.52
58471;BME280;44258;51.288;12.068;2023-03-13T11:50:27;98894.31;;;14.66;58.30
58471;BME280;44258;51.288;12.068;2023-03-13T11:55:55;98900.41;;;15.05;57.70
58471;BME280;44258;51.288;12.068;2023-03-13T12:01:25;98913.47;;;14.82;58.38
58471;BME280;44258;51.288;12.068;2023-03-13T12:03:58;98913.63;;;14.71;58.58
58471;BME280;44258;51.288;12.068;2023-03-13T12:06:31;98917.88;;;14.83;58.43
58471;BME280;44258;51.288;12.068;2023-03-13T12:09:05;98920.19;;;14.78;58.36
58471;BME280;44258;51.288;12.068;2023-03-13T12:11:39;98899.06;;;14.82;58.35
58471;BME280;44258;51.288;12.068;2023-03-13T12:14:12;98902.19;;;14.87;58.26
58471;BME280;44258;51.288;12.068;2023-03-13T12:16:44;98903.97;;;14.68;58.35
58471;BME280;44258;51.288;12.068;2023-03-13T12:19:14;98895.72;;;14.70;58.60
58471;BME280;44258;51.288;12.068;2023-03-13T12:21:46;98894.31;;;14.56;58.63
58471;BME280;44258;51.288;12.068;2023-03-13T12:24:25;98884.94;;;14.50;58.67
58471;BME280;44258;51.288;12.068;2023-03-13T12:26:58;98888.34;;;14.62;58.94
58471;BME280;44258;51.288;12.068;2023-03-13T12:29:39;98864.16;;;14.51;59.06
58471;BME280;44258;51.288;12.068;2023-03-13T12:32:13;98854.44;;;14.68;58.40
58471;BME280;44258;51.288;12.068;2023-03-13T12:34:52;98862.38;;;14.69;58.37
58471;BME280;44258;51.288;12.068;2023-03-13T12:37:27;98873.16;;;14.79;58.10
58471;BME280;44258;51.288;12.068;2023-03-13T12:39:58;98874.44;;;14.85;57.80
58471;BME280;44258;51.288;12.068;2023-03-13T12:42:38;98870.81;;;14.57;57.82
58471;BME280;44258;51.288;12.068;2023-03-13T12:45:15;98871.41;;;14.60;58.42
58471;BME280;44258;51.288;12.068;2023-03-13T12:48:12;98871.97;;;14.64;58.39
58471;BME280;44258;51.288;12.068;2023-03-13T12:50:54;98863.38;;;14.68;58.24
58471;BME280;44258;51.288;12.068;2023-03-13T12:53:58;98864.56;;;14.56;58.41
58471;BME280;44258;51.288;12.068;2023-03-13T12:56:40;98863.84;;;14.64;58.21
58471;BME280;44258;51.288;12.068;2023-03-13T12:59:15;98864.69;;;14.64;58.11
58471;BME280;44258;51.288;12.068;2023-03-13T13:01:48;98854.44;;;14.68;58.16
58471;BME280;44258;51.288;12.068;2023-03-13T13:04:17;98855.84;;;14.72;57.93
58471;BME280;44258;51.288;12.068;2023-03-13T13:06:52;98853.97;;;14.72;57.96
58471;BME280;44258;51.288;12.068;2023-03-13T13:09:23;98842.41;;;14.80;57.43
58471;BME280;44258;51.288;12.068;2023-03-13T13:11:51;98853.47;;;14.87;57.37
58471;BME280;44258;51.288;12.068;2023-03-13T13:14:57;98834.91;;;14.92;57.74
58471;BME280;44258;51.288;12.068;2023-03-13T13:20:42;98819.31;;;15.04;57.63